Dakota Dunes, South Dakota
Current Conditions -  °F | °C
As of 1:52 AM on Wednesday 26 Nov 2014 (Local Time) from KSUX Reporting Station
Light Rain Light Rain  
Wind Chill: -1°   Ceiling: 900
Heat Index:   Visibility: 10mi
Dew Point:   Wind: 6mph
Humidity: 92%   Direction: 290°WNW
Pressure: 29.82"   Gusts: NA
Location:  42.532°N, 96.5446°W
Report Text: KSUX 260752Z 29005KT 10SM -RA OVC009 02/01 A2982 RMK AO2 RAE01B25UPB01E02B19E25SNB02E19 CIG 007V013 SLP106 P0001 T00170006
Loading
Personal Weather Stations






























Interactive Weather Map New forecast layout! Learn more

10-Day Weather Forecast

Advertisements
Track Severe Weather on mobile